createdAt,value
2022-12-25T00:02:01.810Z,9.00
2022-12-25T00:04:37.823Z,9.00
2022-12-25T00:09:35.615Z,9.00
2022-12-25T00:17:00.239Z,9.10
2022-12-25T00:26:54.761Z,9.20
2022-12-25T00:44:31.228Z,9.30
2022-12-25T00:59:20.797Z,9.30
2022-12-25T01:01:50.200Z,9.40
2022-12-25T01:16:59.020Z,9.30
2022-12-25T01:34:18.246Z,9.00
2022-12-25T01:39:15.468Z,9.00
2022-12-25T01:44:44.818Z,9.10
2022-12-25T01:47:13.817Z,9.20
2022-12-25T01:49:45.257Z,9.20
2022-12-25T01:52:20.319Z,9.30
2022-12-25T01:54:56.652Z,9.30
2022-12-25T01:57:28.239Z,9.30
2022-12-25T01:59:57.512Z,9.30
2022-12-25T02:04:59.540Z,9.40
2022-12-25T02:07:30.797Z,9.40
2022-12-25T02:09:58.884Z,9.40
2022-12-25T02:12:28.715Z,9.40
2022-12-25T02:15:05.027Z,9.40
2022-12-25T02:17:39.556Z,9.40
2022-12-25T02:20:43.831Z,9.30
2022-12-25T02:23:43.126Z,9.20
2022-12-25T02:26:19.496Z,9.20
2022-12-25T02:28:57.724Z,9.30
2022-12-25T02:31:33.511Z,9.20
2022-12-25T02:34:07.058Z,9.20
2022-12-25T02:36:41.688Z,9.20
2022-12-25T02:39:31.779Z,9.20
2022-12-25T02:42:04.272Z,9.30
2022-12-25T02:44:54.581Z,9.30
2022-12-25T02:47:40.050Z,9.20
2022-12-25T02:50:27.143Z,9.20
2022-12-25T02:53:15.294Z,9.30
2022-12-25T02:56:03.092Z,9.30
2022-12-25T02:58:52.763Z,9.30
2022-12-25T03:01:45.235Z,9.30
2022-12-25T03:04:36.078Z,9.40
2022-12-25T03:07:09.080Z,9.40
2022-12-25T03:09:59.345Z,9.40
2022-12-25T03:12:38.704Z,9.30
2022-12-25T03:15:26.449Z,9.30
2022-12-25T03:18:00.988Z,9.30
2022-12-25T03:20:48.253Z,9.30
2022-12-25T03:23:37.700Z,9.30
2022-12-25T03:26:23.564Z,9.40
2022-12-25T03:31:25.589Z,9.40
2022-12-25T03:34:25.759Z,9.40
2022-12-25T03:37:15.537Z,9.40
2022-12-25T03:40:08.578Z,9.40
2022-12-25T03:43:00.309Z,9.40
2022-12-25T03:45:52.070Z,9.40
2022-12-25T03:48:38.189Z,9.40
2022-12-25T03:51:29.246Z,9.40
2022-12-25T03:54:19.873Z,9.40
2022-12-25T03:57:06.402Z,9.40
2022-12-25T04:08:16.168Z,9.40
2022-12-25T04:22:04.489Z,9.40
2022-12-25T04:24:51.226Z,9.40
2022-12-25T04:30:23.296Z,9.40
2022-12-25T04:35:56.449Z,9.40
2022-12-25T04:40:54.019Z,9.50
2022-12-25T04:45:54.512Z,9.50
2022-12-25T04:53:19.528Z,9.50
2022-12-25T04:58:17.042Z,9.50
2022-12-25T05:05:41.548Z,9.40
2022-12-25T05:10:41.017Z,9.40
2022-12-25T05:15:40.752Z,9.40
2022-12-25T05:20:40.261Z,9.40
2022-12-25T05:25:40.328Z,9.40
2022-12-25T05:28:08.727Z,9.40
2022-12-25T05:33:06.318Z,9.50
2022-12-25T05:35:34.234Z,9.40
2022-12-25T05:50:24.658Z,9.50
2022-12-25T06:00:17.772Z,9.40
2022-12-25T06:07:43.981Z,9.50
2022-12-25T06:10:12.057Z,9.50
2022-12-25T06:15:09.700Z,9.50
2022-12-25T06:20:07.046Z,9.50
2022-12-25T06:22:35.668Z,9.50
2022-12-25T06:25:05.594Z,9.50
2022-12-25T06:32:30.114Z,9.60
2022-12-25T06:34:59.084Z,9.50
2022-12-25T06:42:24.885Z,9.50
2022-12-25T06:44:53.268Z,9.50
2022-12-25T06:57:14.194Z,9.50
2022-12-25T06:59:43.567Z,9.40
2022-12-25T07:02:18.857Z,9.40
2022-12-25T07:04:47.648Z,9.40
2022-12-25T07:07:16.305Z,9.50
2022-12-25T07:12:17.232Z,9.50
2022-12-25T07:14:49.083Z,9.50
2022-12-25T07:17:17.513Z,9.50
2022-12-25T07:22:14.203Z,9.50
2022-12-25T07:32:08.514Z,9.60
2022-12-25T07:46:58.899Z,9.70
2022-12-25T07:49:28.197Z,9.70
2022-12-25T07:56:53.297Z,9.70
2022-12-25T07:59:21.811Z,9.70
2022-12-25T08:01:50.918Z,9.70
2022-12-25T08:06:48.873Z,9.70
2022-12-25T08:11:47.577Z,9.70
2022-12-25T08:19:12.948Z,9.80
2022-12-25T08:24:10.769Z,10.00
2022-12-25T08:26:38.833Z,10.10
2022-12-25T08:31:39.421Z,10.30
2022-12-25T08:34:11.794Z,10.40
2022-12-25T08:39:11.092Z,10.70
2022-12-25T08:44:07.676Z,10.70
2022-12-25T08:51:34.264Z,10.30
2022-12-25T08:54:02.337Z,10.20
2022-12-25T08:56:31.727Z,10.30
2022-12-25T09:08:52.887Z,10.10
2022-12-25T09:11:21.609Z,10.10
2022-12-25T09:13:51.259Z,10.10
2022-12-25T09:16:22.259Z,10.20
2022-12-25T09:18:50.804Z,10.20
2022-12-25T09:21:19.553Z,10.20
2022-12-25T09:26:17.855Z,10.20
2022-12-25T09:28:51.167Z,10.30
2022-12-25T09:31:22.400Z,10.30
2022-12-25T09:33:50.853Z,10.30
2022-12-25T09:36:23.204Z,10.30
2022-12-25T09:41:24.166Z,10.30
2022-12-25T09:43:55.651Z,10.30
2022-12-25T09:46:33.181Z,10.30
2022-12-25T09:49:09.397Z,10.30
2022-12-25T09:51:40.632Z,10.30
2022-12-25T09:54:17.583Z,10.40
2022-12-25T09:59:21.807Z,10.40
2022-12-25T10:02:05.199Z,10.40
2022-12-25T10:04:48.576Z,10.40
2022-12-25T10:07:24.301Z,10.40
2022-12-25T10:10:03.757Z,10.30
2022-12-25T10:12:42.480Z,10.40
2022-12-25T10:15:30.587Z,10.40
2022-12-25T10:18:30.150Z,10.50
2022-12-25T10:21:00.276Z,10.60
2022-12-25T10:23:33.103Z,10.60
2022-12-25T10:28:39.969Z,10.80
2022-12-25T10:31:20.093Z,11.10
2022-12-25T10:33:50.934Z,11.20
2022-12-25T10:36:20.484Z,11.30
2022-12-25T10:38:48.526Z,11.30
2022-12-25T10:41:30.217Z,11.30
2022-12-25T10:43:58.710Z,11.30
2022-12-25T10:46:29.525Z,11.40
2022-12-25T10:49:01.194Z,11.40
2022-12-25T10:51:32.158Z,11.50
2022-12-25T10:54:00.665Z,11.60
2022-12-25T10:56:28.783Z,11.60
2022-12-25T10:59:12.071Z,11.60
2022-12-25T11:04:20.175Z,11.50
2022-12-25T11:06:58.068Z,11.40
2022-12-25T11:11:54.476Z,11.30
2022-12-25T11:14:23.703Z,11.30
2022-12-25T11:19:29.814Z,11.40
2022-12-25T11:22:00.338Z,11.50
2022-12-25T11:24:30.103Z,11.70
2022-12-25T11:26:59.694Z,11.90
2022-12-25T11:29:37.400Z,12.10
2022-12-25T11:32:12.642Z,12.30
2022-12-25T11:34:46.228Z,12.40
2022-12-25T11:37:18.487Z,12.30
2022-12-25T11:42:20.740Z,12.10
2022-12-25T11:44:54.409Z,12.00
2022-12-25T11:47:26.417Z,11.80
2022-12-25T11:50:01.152Z,11.80
2022-12-25T11:52:34.767Z,11.70
2022-12-25T11:55:08.328Z,11.60
2022-12-25T11:57:39.024Z,11.60
2022-12-25T12:00:10.371Z,11.60
2022-12-25T12:02:46.041Z,11.70
2022-12-25T12:05:21.303Z,11.70
2022-12-25T12:07:55.936Z,11.80
2022-12-25T12:10:33.924Z,11.90
2022-12-25T12:13:15.081Z,11.90
2022-12-25T12:15:47.089Z,12.10
2022-12-25T12:18:22.393Z,12.30
2022-12-25T12:21:02.788Z,12.60
2022-12-25T12:23:34.500Z,12.70
2022-12-25T12:26:02.967Z,12.80
2022-12-25T12:28:45.801Z,12.70
2022-12-25T12:31:14.753Z,12.60
2022-12-25T12:33:55.633Z,12.60
2022-12-25T12:36:36.005Z,12.70
2022-12-25T12:39:06.293Z,12.70
2022-12-25T12:41:47.459Z,12.70
2022-12-25T12:44:17.281Z,12.60
2022-12-25T12:46:53.931Z,12.60
2022-12-25T12:49:25.001Z,12.50
2022-12-25T12:52:04.746Z,12.50
2022-12-25T12:54:32.905Z,12.50
2022-12-25T12:57:06.630Z,12.50
2022-12-25T12:59:40.297Z,12.50
2022-12-25T13:28:52.344Z,11.70
2022-12-25T13:31:31.730Z,11.60
2022-12-25T13:34:02.352Z,11.50
2022-12-25T13:36:40.615Z,11.40
2022-12-25T13:39:10.107Z,11.40
2022-12-25T13:42:02.487Z,11.40
